Aviation Digital Data Service (ADDS)

Output produced by METARs form (2102 UTC 20 August 2019)
found at http://www.aviationweather.gov/metar/data/
 
Forecast for: AMD
Text: TAF AMD MPTO 202005Z 2020/2124 30006KT 9999 SCT018
Forecast period: 2000 UTC 20 August 2019 to 0000 UTC 22 August 2019
Forecast type: FROM: standard forecast or significant change
Winds: from the WNW (300 degrees) at 7 MPH (6 knots; 3.1 m/s)
Visibility: 6 or more miles 10+ km)
Ceiling: at least 12,000 feet AGL
Clouds: scattered clouds at 1800 feet AGL
Weather: no significant weather forecast for this period
Text: TEMPO 2020/2024 18007KT SCT015CB SCT090
Forecast period: 2000 UTC 20 August 2019 to 0000 UTC 21 August 2019
Forecast type: TEMPORARY: The following changes expected for less than half the time period
Winds: from the S (180 degrees) at 8 MPH (7 knots; 3.6 m/s)
Visibility: missing
Ceiling: at least 12,000 feet AGL
Clouds: scattered clouds at 1500 feet AGL
scattered clouds at 9000 feet AGL
Weather: no significant weather forecast for this period